Portada
METAR-TAF:

METAR-TAF

Aeroports :

N'Djamena, Txad

latitud: 12-08N, longitud: 015-02E, altitud: 295 m

Observació

L'informe es va fer fa 28 minuts, a les 20:00 UTC
Vent 3 kt del Oest
Temperatura 30°C
Humitat 66%
Pressió 1009 hPa
Visibilitat: 8000 m

METAR: FTTJ 012000Z 27003KT 8000 NSC 30/23 Q1009 NOSIG

Hora: 21:28 (20:28 UTC)

Pronòstic

L'informe es va fer fa 3 hores i 28 minuts, a les 17:00 UTC
Pronòstic vàlid del 01 a les 18 UTC al 02 a les 24 UTC
Vent 6 kt del Sud-Oest
Visibilitat: 8000 m
Escasses núvols a una alçada de 3000 ft
Probabilitat 30% :
Temporalment
l' 02 a les 15 UTC al 02 a les 19 UTC
tempesta

TAF: FTTJ 011700Z 0118/0224 22006KT 8000 FEW030 PROB30 TEMPO 0215/0219 TS

Observacions i pronòstics meteorològics de més de 4000 aeroports (METAR i TAF).

Les estacions disponibles són els punts grocs i vermells al mapa.

Posi el ratolí al punt desitjat per veure el nom de l'estació.

Feu clic per veure les observacions i els pronòstics meteorològics.

Per canviar el mapa: feu clic els botons verds amb una creu de color negre per apropar; al botó verd amb un guió per allunyar la imatge; o en les fletxes verdes per a mapes adjacents.


METAR-TAF: